createdAt,value
2016-11-04T00:02:18.344Z,0
2016-11-04T00:07:14.810Z,0
2016-11-04T00:12:11.815Z,0
2016-11-04T00:17:08.379Z,0
2016-11-04T00:22:06.328Z,0
2016-11-04T00:27:02.402Z,0
2016-11-04T00:31:59.278Z,0
2016-11-04T00:36:57.161Z,0
2016-11-04T00:41:54.524Z,0
2016-11-04T00:46:51.321Z,0
2016-11-04T00:51:47.535Z,0
2016-11-04T00:56:44.504Z,0
2016-11-04T01:01:41.124Z,0
2016-11-04T01:06:37.142Z,0
2016-11-04T01:11:34.841Z,0
2016-11-04T01:16:31.724Z,0
2016-11-04T01:21:28.204Z,0
2016-11-04T01:26:25.113Z,0
2016-11-04T01:31:21.663Z,0
2016-11-04T01:36:18.242Z,0
2016-11-04T01:41:15.660Z,0
2016-11-04T01:46:12.626Z,0
2016-11-04T01:51:08.784Z,0
2016-11-04T01:56:05.123Z,0
2016-11-04T02:01:02.542Z,0
2016-11-04T02:05:58.744Z,0
2016-11-04T02:10:55.201Z,0
2016-11-04T02:15:51.906Z,0
2016-11-04T02:20:49.683Z,0
2016-11-04T02:25:46.892Z,0
2016-11-04T02:30:43.069Z,0
2016-11-04T02:35:42.259Z,0
2016-11-04T02:40:37.979Z,0
2016-11-04T02:45:34.385Z,0
2016-11-04T02:50:33.344Z,0
2016-11-04T02:55:29.039Z,0
2016-11-04T03:00:25.322Z,0
2016-11-04T03:05:21.609Z,0
2016-11-04T03:10:18.098Z,0
2016-11-04T03:15:14.604Z,0
2016-11-04T03:20:11.101Z,0
2016-11-04T03:25:08.822Z,0
2016-11-04T03:30:05.435Z,0
2016-11-04T03:35:01.891Z,0
2016-11-04T03:39:58.381Z,0
2016-11-04T03:44:54.921Z,0
2016-11-04T03:49:51.561Z,0
2016-11-04T03:54:48.182Z,0
2016-11-04T03:59:44.652Z,0
2016-11-04T04:04:41.263Z,0
2016-11-04T04:09:37.821Z,0
2016-11-04T04:14:39.248Z,0
2016-11-04T04:19:36.418Z,0
2016-11-04T04:24:32.284Z,0
2016-11-04T04:29:28.621Z,0
2016-11-04T04:34:24.950Z,0
2016-11-04T04:39:21.570Z,0
2016-11-04T04:44:18.263Z,0
2016-11-04T04:49:14.690Z,0
2016-11-04T04:54:11.368Z,0
2016-11-04T04:59:09.148Z,0
2016-11-04T05:04:06.198Z,0
2016-11-04T05:09:02.527Z,0
2016-11-04T05:14:00.084Z,0
2016-11-04T05:18:56.366Z,0
2016-11-04T05:23:52.750Z,0
2016-11-04T05:28:49.203Z,0
2016-11-04T05:33:45.521Z,0
2016-11-04T05:38:44.403Z,0
2016-11-04T05:43:41.433Z,0
2016-11-04T05:48:37.660Z,0
2016-11-04T05:53:34.305Z,0
2016-11-04T05:58:30.294Z,0
2016-11-04T06:03:27.163Z,4
2016-11-04T06:08:23.541Z,4
2016-11-04T06:13:20.141Z,12
2016-11-04T06:18:16.942Z,20
2016-11-04T06:23:13.585Z,36
2016-11-04T06:28:10.442Z,56
2016-11-04T06:33:07.210Z,80
2016-11-04T06:38:04.169Z,104
2016-11-04T06:43:01.519Z,136
2016-11-04T06:47:57.860Z,180
2016-11-04T06:52:54.838Z,224
2016-11-04T06:57:51.443Z,260
2016-11-04T07:02:47.900Z,300
2016-11-04T07:07:45.266Z,300
2016-11-04T07:12:42.028Z,348
2016-11-04T07:17:38.843Z,424
2016-11-04T07:22:37.197Z,504
2016-11-04T07:27:33.681Z,592
2016-11-04T07:32:36.328Z,620
2016-11-04T07:37:32.056Z,948
2016-11-04T07:42:28.995Z,924
2016-11-04T07:47:25.452Z,1072
2016-11-04T07:52:22.024Z,1852
2016-11-04T07:57:19.057Z,2604
2016-11-04T08:02:16.594Z,3204
2016-11-04T08:07:12.850Z,3424
2016-11-04T08:12:09.695Z,3836
2016-11-04T08:17:06.309Z,3636
2016-11-04T08:22:02.828Z,3896
2016-11-04T08:26:59.414Z,3904
2016-11-04T08:31:55.985Z,3316
2016-11-04T08:36:52.364Z,3696
2016-11-04T08:41:48.984Z,3940
2016-11-04T08:46:45.525Z,4216
2016-11-04T08:51:41.886Z,3300
2016-11-04T08:56:38.490Z,3004
2016-11-04T09:01:34.963Z,4172
2016-11-04T09:06:31.651Z,4412
2016-11-04T09:11:28.278Z,4636
2016-11-04T09:16:24.923Z,3868
2016-11-04T09:21:21.321Z,3724
2016-11-04T09:26:18.223Z,3476
2016-11-04T09:31:14.563Z,4332
2016-11-04T09:36:12.105Z,5484
2016-11-04T09:41:08.785Z,6252
2016-11-04T09:46:06.116Z,6028
2016-11-04T09:51:02.746Z,6604
2016-11-04T09:55:59.492Z,8644
2016-11-04T10:00:56.386Z,8156
2016-11-04T10:05:53.316Z,10256
2016-11-04T10:10:50.098Z,14788
2016-11-04T10:15:47.501Z,9504
2016-11-04T10:20:43.980Z,7888
2016-11-04T10:25:41.304Z,6612
2016-11-04T10:30:37.426Z,7344
2016-11-04T10:35:33.829Z,8880
2016-11-04T10:40:30.669Z,8228
2016-11-04T10:45:27.020Z,7588
2016-11-04T10:50:23.448Z,6832
2016-11-04T10:55:19.493Z,7480
2016-11-04T11:00:15.947Z,6540
2016-11-04T11:05:12.223Z,7248
2016-11-04T11:10:13.335Z,8152
2016-11-04T11:15:08.972Z,7456
2016-11-04T11:20:06.215Z,7328
2016-11-04T11:25:03.001Z,7916
2016-11-04T11:29:59.775Z,7100
2016-11-04T11:34:57.036Z,8704
2016-11-04T11:39:53.609Z,7696
2016-11-04T11:44:49.908Z,7824
2016-11-04T11:54:46.803Z,5772
2016-11-04T11:59:43.586Z,5616
2016-11-04T12:04:39.886Z,5664
2016-11-04T12:09:37.072Z,5580
2016-11-04T12:14:34.356Z,5632
2016-11-04T12:19:31.482Z,5840
2016-11-04T12:29:34.779Z,6072
2016-11-04T12:34:31.235Z,5920
2016-11-04T12:39:28.160Z,6036
2016-11-04T12:44:24.852Z,5844
2016-11-04T12:49:22.374Z,5516
2016-11-04T12:54:18.907Z,5408
2016-11-04T12:59:15.132Z,5192
2016-11-04T13:04:11.914Z,5100
2016-11-04T13:09:08.434Z,5196
2016-11-04T13:14:05.118Z,5200
2016-11-04T13:19:01.889Z,4468
2016-11-04T13:24:00.764Z,4180
2016-11-04T13:28:56.704Z,4068
2016-11-04T13:33:53.549Z,4180
2016-11-04T13:38:50.241Z,4200
2016-11-04T13:43:47.271Z,4156
2016-11-04T13:48:43.710Z,3780
2016-11-04T13:53:40.250Z,3496
2016-11-04T13:58:37.197Z,3532
2016-11-04T14:03:37.153Z,3608
2016-11-04T14:13:34.472Z,3488
2016-11-04T14:18:31.168Z,3020
2016-11-04T14:23:27.803Z,2776
2016-11-04T14:28:24.257Z,2484
2016-11-04T14:33:24.819Z,2440
2016-11-04T14:38:22.189Z,2256
2016-11-04T14:43:18.595Z,2088
2016-11-04T14:48:15.289Z,1984
2016-11-04T14:53:11.743Z,1636
2016-11-04T14:58:08.300Z,1424
2016-11-04T15:03:04.853Z,1388
2016-11-04T15:08:02.302Z,1228
2016-11-04T15:12:58.757Z,1124
2016-11-04T15:17:55.478Z,936
2016-11-04T15:22:52.087Z,808
2016-11-04T15:27:48.672Z,620
2016-11-04T15:32:45.197Z,456
2016-11-04T15:37:41.827Z,376
2016-11-04T15:42:38.385Z,280
2016-11-04T15:47:38.540Z,192
2016-11-04T15:52:34.411Z,136
2016-11-04T15:57:31.348Z,96
2016-11-04T16:02:27.695Z,60
2016-11-04T16:07:24.987Z,36
2016-11-04T16:12:21.189Z,16
2016-11-04T16:17:17.907Z,8
2016-11-04T16:22:14.390Z,0
2016-11-04T16:27:10.767Z,0
2016-11-04T16:32:07.089Z,0
2016-11-04T16:37:04.028Z,0
2016-11-04T16:42:00.266Z,0
2016-11-04T16:46:56.769Z,0
2016-11-04T16:51:53.531Z,0
2016-11-04T16:56:49.928Z,0
2016-11-04T17:01:46.510Z,0
2016-11-04T17:06:43.850Z,0
2016-11-04T17:11:40.318Z,0
2016-11-04T17:16:36.576Z,0
2016-11-04T17:21:32.987Z,0
2016-11-04T17:26:29.930Z,0
2016-11-04T17:31:26.671Z,0
2016-11-04T17:36:23.336Z,0
2016-11-04T17:41:20.251Z,0
2016-11-04T17:46:16.751Z,0
2016-11-04T17:51:13.712Z,0
2016-11-04T17:56:10.390Z,0
2016-11-04T18:01:07.212Z,0
2016-11-04T18:06:04.419Z,0
2016-11-04T18:11:00.810Z,0
2016-11-04T18:15:57.171Z,0
2016-11-04T18:20:56.509Z,0
2016-11-04T18:25:52.272Z,0
2016-11-04T18:30:50.223Z,0
2016-11-04T18:35:47.014Z,0
2016-11-04T18:40:44.072Z,0
2016-11-04T18:45:40.015Z,0
2016-11-04T18:50:38.224Z,0
2016-11-04T18:55:35.143Z,0
2016-11-04T19:00:32.400Z,0
2016-11-04T19:05:28.426Z,0
2016-11-04T19:10:26.101Z,0
2016-11-04T19:15:22.092Z,0
2016-11-04T19:20:18.590Z,0
2016-11-04T19:25:16.016Z,0
2016-11-04T19:30:12.536Z,0
2016-11-04T19:35:08.851Z,0
2016-11-04T19:40:05.797Z,0
2016-11-04T19:45:04.282Z,0
2016-11-04T19:50:00.260Z,0
2016-11-04T19:54:56.473Z,0
2016-11-04T19:59:53.094Z,0
2016-11-04T20:04:50.816Z,0
2016-11-04T20:09:46.877Z,0
2016-11-04T20:14:43.817Z,0
2016-11-04T20:19:46.057Z,0
2016-11-04T20:24:42.125Z,0
2016-11-04T20:29:38.098Z,0
2016-11-04T20:34:34.360Z,0
2016-11-04T20:39:33.351Z,0
2016-11-04T20:44:28.659Z,0
2016-11-04T20:49:26.480Z,0
2016-11-04T20:54:22.578Z,0
2016-11-04T20:59:22.119Z,0
2016-11-04T21:04:18.144Z,0
2016-11-04T21:09:14.579Z,0
2016-11-04T21:14:11.144Z,0
2016-11-04T21:19:07.624Z,0
2016-11-04T21:24:05.445Z,0
2016-11-04T21:29:01.303Z,0
2016-11-04T21:33:59.641Z,0
2016-11-04T21:38:56.441Z,0
2016-11-04T21:43:53.194Z,0
2016-11-04T21:48:49.501Z,0
2016-11-04T21:53:45.940Z,0
2016-11-04T21:58:44.707Z,0
2016-11-04T22:03:40.951Z,0
2016-11-04T22:08:37.371Z,0
2016-11-04T22:13:34.728Z,0
2016-11-04T22:18:30.440Z,0
2016-11-04T22:23:26.873Z,0
2016-11-04T22:28:23.244Z,0
2016-11-04T22:33:19.656Z,0
2016-11-04T22:38:16.160Z,0
2016-11-04T22:43:12.582Z,0
2016-11-04T22:48:08.899Z,0
2016-11-04T22:53:05.461Z,0
2016-11-04T22:58:02.314Z,0
2016-11-04T23:02:59.328Z,0
2016-11-04T23:07:55.745Z,0
2016-11-04T23:12:52.125Z,0
2016-11-04T23:17:48.625Z,0
2016-11-04T23:22:45.243Z,0
2016-11-04T23:27:42.148Z,0
2016-11-04T23:32:38.466Z,0
2016-11-04T23:37:34.930Z,0
2016-11-04T23:42:31.686Z,0
2016-11-04T23:47:28.207Z,0
2016-11-04T23:52:25.740Z,0
2016-11-04T23:57:21.568Z,0
